Time;durP1;ratioP1;P1;durP2;ratioP2;P2;SDS_P1;SDS_P2;PMS_P1;PMS_P2;Temp;Humidity;BMP_temperature;BMP_pressure;BME280_temperature;BME280_humidity;BME280_pressure;Samples;Min_cycle;Max_cycle;Signal;HPM_P1;HPM_P2
2022/11/01 00:01:05;;;;;;;32.17;16.35;;;13.50;99.90;;;;;;5055435;28;20128;-70
2022/11/01 00:03:31;;;;;;;28.52;15.70;;;13.40;99.90;;;;;;5072144;28;20051;-70
2022/11/01 00:05:57;;;;;;;35.78;16.02;;;13.50;99.90;;;;;;5038600;28;20098;-70
2022/11/01 00:08:22;;;;;;;38.30;17.23;;;13.60;99.90;;;;;;5071542;28;20044;-70
2022/11/01 00:10:48;;;;;;;29.70;16.38;;;13.60;99.90;;;;;;5038702;28;20051;-70
2022/11/01 00:13:14;;;;;;;32.35;16.75;;;13.60;99.90;;;;;;5055411;28;20534;-70
2022/11/01 00:15:39;;;;;;;28.70;16.02;;;13.60;99.90;;;;;;5038900;28;20098;-70
2022/11/01 00:18:05;;;;;;;31.95;16.33;;;13.70;99.90;;;;;;5038794;28;20815;-70
2022/11/01 00:20:31;;;;;;;27.13;15.05;;;13.70;99.90;;;;;;5055540;28;20045;-70
2022/11/01 00:22:56;;;;;;;30.20;15.77;;;13.70;99.90;;;;;;5055085;28;20048;-70
2022/11/01 00:25:22;;;;;;;28.67;14.13;;;13.70;99.90;;;;;;5071127;28;20048;-69
2022/11/01 00:27:48;;;;;;;26.90;14.88;;;13.70;99.90;;;;;;5071773;28;20067;-71
2022/11/01 00:30:13;;;;;;;26.55;13.63;;;13.70;99.90;;;;;;5038284;28;20129;-70
2022/11/01 00:32:40;;;;;;;23.63;13.82;;;13.80;99.90;;;;;;5038664;28;20044;-69
2022/11/01 00:35:05;;;;;;;29.50;14.23;;;13.80;99.90;;;;;;5054845;28;20441;-69
2022/11/01 00:37:31;;;;;;;27.52;13.88;;;13.80;99.90;;;;;;5055250;28;20102;-70
2022/11/01 00:39:57;;;;;;;26.30;14.05;;;13.90;99.90;;;;;;5071416;28;20131;-70
2022/11/01 00:42:22;;;;;;;26.58;14.73;;;13.80;99.90;;;;;;5055101;28;20044;-69
2022/11/01 00:44:48;;;;;;;25.92;14.10;;;13.80;99.90;;;;;;5038276;28;20048;-70
2022/11/01 00:47:14;;;;;;;23.70;13.60;;;13.90;99.90;;;;;;5054914;28;20047;-70
2022/11/01 00:49:39;;;;;;;22.45;13.18;;;13.80;99.90;;;;;;5038466;28;20048;-69
2022/11/01 00:52:05;;;;;;;27.92;13.02;;;13.80;99.90;;;;;;5071544;28;20174;-70
2022/11/01 00:54:31;;;;;;;26.02;13.45;;;13.80;99.90;;;;;;5055244;28;20508;-70
2022/11/01 00:56:56;;;;;;;28.23;13.57;;;13.80;99.90;;;;;;5038220;28;20132;-69
2022/11/01 00:59:22;;;;;;;25.90;13.57;;;13.80;99.90;;;;;;5071750;28;20055;-70
2022/11/01 01:01:48;;;;;;;26.50;14.05;;;13.80;99.90;;;;;;5055021;28;20540;-69
2022/11/01 01:04:13;;;;;;;26.40;13.98;;;13.80;99.90;;;;;;5071249;28;20213;-70
2022/11/01 01:06:40;;;;;;;27.65;13.95;;;13.80;99.90;;;;;;5054659;28;20055;-69
2022/11/01 01:09:06;;;;;;;26.65;13.70;;;13.80;99.90;;;;;;5054662;28;20166;-70
2022/11/01 01:11:31;;;;;;;22.67;12.57;;;13.80;99.90;;;;;;5055004;28;20045;-70
2022/11/01 01:13:57;;;;;;;24.38;12.63;;;13.90;99.90;;;;;;5054635;28;20126;-70
2022/11/01 01:16:23;;;;;;;24.90;12.15;;;14.00;99.90;;;;;;5037951;28;20135;-70
2022/11/01 01:18:48;;;;;;;24.67;13.25;;;14.00;99.90;;;;;;5071537;28;20083;-69
2022/11/01 01:21:15;;;;;;;25.25;12.93;;;14.00;99.90;;;;;;5054676;28;20131;-70
2022/11/01 01:23:42;;;;;;;22.10;11.93;;;14.10;99.90;;;;;;5054345;28;20037;-70
2022/11/01 01:26:09;;;;;;;25.05;12.82;;;14.10;99.90;;;;;;5038170;28;20083;-70
2022/11/01 01:28:35;;;;;;;20.98;12.50;;;14.10;99.90;;;;;;5071473;28;20087;-69
2022/11/01 01:31:08;;;;;;;20.92;11.88;;;14.10;99.90;;;;;;5071269;28;20048;-69
2022/11/01 01:33:34;;;;;;;21.38;11.73;;;14.10;99.90;;;;;;5071445;28;20045;-70
2022/11/01 01:36:02;;;;;;;25.52;12.27;;;14.20;99.90;;;;;;5056010;28;20094;-69
2022/11/01 01:38:28;;;;;;;24.63;11.55;;;14.20;99.90;;;;;;5058062;28;20049;-69
2022/11/01 01:41:54;;;;;;;21.40;11.88;;;14.20;99.90;;;;;;5074909;28;20049;-70
2022/11/01 01:43:42;;;;;;;21.27;11.35;;;14.30;99.90;;;;;;5074286;28;20106;-69
2022/11/01 01:46:09;;;;;;;21.05;11.02;;;14.20;99.90;;;;;;5074656;28;20044;-70
2022/11/01 01:48:36;;;;;;;20.88;10.98;;;14.30;99.90;;;;;;5074813;28;20514;-70
2022/11/01 01:51:05;;;;;;;19.27;11.07;;;14.30;99.90;;;;;;5057983;28;20044;-71
2022/11/01 01:53:33;;;;;;;21.25;11.15;;;14.30;99.90;;;;;;5074687;28;20055;-70
2022/11/01 01:56:12;;;;;;;22.23;10.93;;;14.30;99.90;;;;;;5058080;28;20056;-70
2022/11/01 01:58:46;;;;;;;20.33;10.63;;;14.30;99.90;;;;;;5074652;28;20040;-70
2022/11/01 02:01:12;;;;;;;19.45;10.90;;;14.30;99.90;;;;;;5058165;28;20381;-70
2022/11/01 02:03:40;;;;;;;24.20;10.85;;;14.40;99.90;;;;;;5074285;28;20089;-70
2022/11/01 02:06:13;;;;;;;19.33;11.25;;;14.40;99.90;;;;;;5074272;28;20052;-70
2022/11/01 02:08:42;;;;;;;17.92;10.45;;;14.40;99.90;;;;;;5074033;28;20056;-70
2022/11/01 02:11:09;;;;;;;21.13;10.05;;;14.40;99.90;;;;;;5057538;28;20051;-70
2022/11/01 02:13:35;;;;;;;18.98;10.18;;;14.40;99.90;;;;;;5074375;28;20044;-70
2022/11/01 02:16:07;;;;;;;16.10;9.90;;;14.50;99.90;;;;;;5074205;28;20052;-70
2022/11/01 02:18:43;;;;;;;;;;;14.50;99.90;;;;;;5074745;28;20135;-70
2022/11/01 02:21:17;;;;;;;17.00;9.82;;;14.50;99.90;;;;;;5057340;28;20007;-70
2022/11/01 02:23:48;;;;;;;19.73;9.60;;;14.50;99.90;;;;;;5074043;28;20047;-70
2022/11/01 02:26:22;;;;;;;18.00;9.20;;;14.50;99.90;;;;;;5073939;28;20036;-70
2022/11/01 02:29:26;;;;;;;19.52;8.95;;;14.50;99.90;;;;;;5074110;28;20059;-70
2022/11/01 02:32:10;;;;;;;17.98;9.02;;;14.50;99.90;;;;;;5074020;28;20052;-70
2022/11/01 02:35:02;;;;;;;20.73;9.32;;;14.50;99.90;;;;;;5056912;28;20136;-71
2022/11/01 02:37:43;;;;;;;16.80;8.73;;;14.40;99.90;;;;;;5073730;28;20044;-70
2022/11/01 02:40:18;;;;;;;17.17;8.93;;;14.50;99.90;;;;;;5073564;28;20062;-70
2022/11/01 02:42:47;;;;;;;20.80;9.60;;;14.50;99.90;;;;;;5073923;28;20385;-70
2022/11/01 02:45:28;;;;;;;18.63;9.20;;;14.50;99.90;;;;;;5073130;28;20084;-70
2022/11/01 02:47:59;;;;;;;17.85;8.55;;;14.50;99.90;;;;;;5072469;28;20044;-71
2022/11/01 02:50:30;;;;;;;15.02;7.93;;;14.60;99.90;;;;;;5056749;28;20048;-70
2022/11/01 02:52:57;;;;;;;19.67;9.00;;;14.60;99.90;;;;;;5057047;28;20040;-70
2022/11/01 02:55:29;;;;;;;14.93;8.45;;;14.50;99.90;;;;;;5056367;28;20051;-70
2022/11/01 02:58:19;;;;;;;17.92;8.70;;;14.60;99.90;;;;;;5057726;28;20052;-71
2022/11/01 03:00:45;;;;;;;16.52;8.00;;;14.60;99.90;;;;;;5073112;28;20066;-70
2022/11/01 03:03:25;;;;;;;14.90;8.85;;;14.60;99.90;;;;;;5040094;28;20052;-70
2022/11/01 03:05:59;;;;;;;16.80;8.32;;;14.60;99.90;;;;;;5073265;28;20117;-71
2022/11/01 03:08:43;;;;;;;15.25;8.32;;;14.60;99.90;;;;;;5072725;28;20439;-70
2022/11/01 03:11:21;;;;;;;17.58;8.23;;;14.70;99.90;;;;;;5073241;28;20055;-70
2022/11/01 03:14:02;;;;;;;13.88;8.48;;;14.70;99.90;;;;;;5056653;28;20540;-70
2022/11/01 03:16:37;;;;;;;18.30;8.80;;;14.60;99.90;;;;;;5056384;28;20157;-71
2022/11/01 03:19:25;;;;;;;16.05;8.63;;;14.60;99.90;;;;;;5057051;28;20083;-70
2022/11/01 03:22:02;;;;;;;18.25;8.90;;;14.60;99.90;;;;;;5056397;28;20048;-70
2022/11/01 03:24:32;;;;;;;17.95;8.63;;;14.70;99.90;;;;;;5055967;28;20040;-71
2022/11/01 03:27:07;;;;;;;24.38;9.07;;;14.70;99.90;;;;;;5055998;28;20048;-70
2022/11/01 03:29:35;;;;;;;14.98;7.82;;;14.70;99.90;;;;;;5072705;28;20131;-70
2022/11/01 03:32:02;;;;;;;19.98;8.80;;;14.70;99.90;;;;;;5056236;28;20125;-70
2022/11/01 03:34:30;;;;;;;15.88;8.27;;;14.80;99.90;;;;;;5055940;28;20040;-70
2022/11/01 03:37:00;;;;;;;19.00;8.43;;;14.80;99.90;;;;;;5072707;28;20051;-70
2022/11/01 03:39:34;;;;;;;13.85;7.78;;;14.80;99.90;;;;;;5055805;28;20556;-70
2022/11/01 03:42:09;;;;;;;16.55;8.35;;;14.80;99.90;;;;;;5056035;28;20044;-70
2022/11/01 03:44:43;;;;;;;13.88;7.55;;;14.80;99.90;;;;;;5055490;28;20102;-70
2022/11/01 03:47:10;;;;;;;16.52;7.97;;;14.90;99.90;;;;;;5072663;28;20083;-70
2022/11/01 03:49:35;;;;;;;19.40;7.82;;;14.90;99.90;;;;;;5055648;28;20103;-70
2022/11/01 03:52:01;;;;;;;16.30;7.35;;;14.90;99.90;;;;;;5055856;28;20079;-70
2022/11/01 03:54:28;;;;;;;12.70;7.15;;;15.00;99.90;;;;;;5055572;28;20052;-70
2022/11/01 03:56:54;;;;;;;18.10;7.72;;;15.00;99.90;;;;;;5039353;28;20045;-70
2022/11/01 03:59:20;;;;;;;17.67;7.90;;;15.00;99.90;;;;;;5055611;28;20048;-70
2022/11/01 04:01:45;;;;;;;16.85;7.10;;;15.00;99.90;;;;;;5072166;28;20055;-70
2022/11/01 04:04:11;;;;;;;15.48;7.80;;;15.00;99.90;;;;;;5055027;28;20044;-70
2022/11/01 04:06:37;;;;;;;13.45;8.07;;;15.00;99.90;;;;;;5038358;28;20055;-70
2022/11/01 04:09:03;;;;;;;16.20;7.65;;;15.00;99.90;;;;;;5055558;28;20048;-70
2022/11/01 04:11:28;;;;;;;14.85;7.45;;;15.00;99.90;;;;;;5055151;28;20048;-70
2022/11/01 04:20:31;;;;;;;14.32;7.53;;;15.10;99.90;;;;;;5072149;28;20054;-70
2022/11/01 04:22:08;;;;;;;16.83;7.82;;;15.10;99.90;;;;;;5072072;28;20055;-70
2022/11/01 04:24:34;;;;;;;16.50;7.00;;;15.10;99.90;;;;;;5054786;28;20128;-69
2022/11/01 04:27:00;;;;;;;15.43;6.93;;;15.10;99.90;;;;;;5072115;28;20131;-70
2022/11/01 04:29:26;;;;;;;12.68;7.20;;;15.10;99.90;;;;;;5071946;28;20543;-70
2022/11/01 04:31:51;;;;;;;12.00;6.10;;;15.10;99.90;;;;;;5071647;28;20040;-70
2022/11/01 04:34:40;;;;;;;11.55;7.10;;;15.10;99.90;;;;;;5038730;28;20051;-70
2022/11/01 04:37:03;;;;;;;14.88;7.25;;;15.00;99.90;;;;;;4695784;28;10000415;-71
2022/11/01 04:39:28;;;;;;;16.85;7.40;;;15.00;99.90;;;;;;5055125;28;20461;-71
2022/11/01 04:41:54;;;;;;;12.90;6.90;;;14.90;99.90;;;;;;5038330;28;20401;-70
2022/11/01 04:44:20;;;;;;;15.80;7.10;;;14.90;99.90;;;;;;5050031;28;20048;-70
2022/11/01 04:46:45;;;;;;;11.90;6.72;;;15.00;99.90;;;;;;5057517;28;20485;-71
2022/11/01 04:49:11;;;;;;;11.38;6.60;;;15.00;99.90;;;;;;5032647;28;20125;-70
2022/11/01 04:51:39;;;;;;;13.20;6.78;;;15.10;99.90;;;;;;5069188;28;20048;-71
2022/11/01 04:54:06;;;;;;;12.90;7.00;;;15.00;99.90;;;;;;5036287;28;20064;-72
2022/11/01 04:56:33;;;;;;;13.38;6.47;;;15.10;99.90;;;;;;5048646;28;20080;-70
2022/11/01 04:58:58;;;;;;;16.08;6.90;;;15.10;99.90;;;;;;5054490;28;20076;-72
2022/11/01 05:01:24;;;;;;;9.95;6.65;;;15.10;99.90;;;;;;5041227;28;20083;-71
2022/11/01 05:03:50;;;;;;;14.70;6.22;;;15.10;99.90;;;;;;5052945;28;20087;-71
2022/11/01 05:06:16;;;;;;;10.95;6.57;;;15.10;99.90;;;;;;5032344;28;20037;-70
2022/11/01 05:08:41;;;;;;;13.07;6.68;;;15.10;99.90;;;;;;5059534;28;20102;-70
2022/11/01 05:11:07;;;;;;;15.77;6.70;;;15.10;99.90;;;;;;5034308;28;20051;-70
2022/11/01 05:13:34;;;;;;;14.30;7.32;;;15.00;99.90;;;;;;5052548;28;20044;-70
2022/11/01 05:16:04;;;;;;;13.88;6.57;;;15.00;99.90;;;;;;5063455;28;20056;-70
2022/11/01 05:18:29;;;;;;;10.82;6.65;;;15.00;99.90;;;;;;5056131;28;20052;-70
2022/11/01 05:20:55;;;;;;;12.55;6.93;;;15.00;99.90;;;;;;5055878;28;20560;-70
2022/11/01 05:23:21;;;;;;;16.20;6.95;;;15.00;99.90;;;;;;5072275;28;20087;-71
2022/11/01 05:25:47;;;;;;;18.80;7.25;;;14.90;99.90;;;;;;5073731;28;20408;-70
2022/11/01 05:28:13;;;;;;;17.30;6.68;;;14.90;99.90;;;;;;5056116;28;20242;-70
2022/11/01 05:30:40;;;;;;;13.93;6.90;;;14.90;99.90;;;;;;5052123;28;20174;-73
2022/11/01 05:33:06;;;;;;;13.63;7.38;;;14.90;99.90;;;;;;5074873;28;20079;-70
2022/11/01 05:35:34;;;;;;;17.98;6.60;;;14.90;99.90;;;;;;5061249;28;20123;-70
2022/11/01 05:38:01;;;;;;;11.30;6.65;;;14.90;99.90;;;;;;5069062;28;20049;-71
2022/11/01 05:40:27;;;;;;;15.05;6.28;;;14.90;99.90;;;;;;5054938;28;20040;-70
2022/11/01 05:42:53;;;;;;;13.20;6.80;;;14.90;99.90;;;;;;5066523;28;20094;-70
2022/11/01 05:45:19;;;;;;;14.48;6.47;;;14.90;99.90;;;;;;5040556;28;20405;-70
2022/11/01 05:47:45;;;;;;;11.23;6.57;;;14.80;99.90;;;;;;5021002;28;20040;-70
2022/11/01 05:50:13;;;;;;;11.45;6.00;;;14.80;99.90;;;;;;5037584;28;20053;-71
2022/11/01 05:52:39;;;;;;;10.90;6.25;;;14.90;99.90;;;;;;5054769;28;20136;-70
2022/11/01 05:55:06;;;;;;;12.88;6.30;;;14.90;99.90;;;;;;5038052;28;20143;-70
2022/11/01 05:57:32;;;;;;;15.73;5.97;;;15.00;99.90;;;;;;5054425;28;20057;-70
2022/11/01 05:59:58;;;;;;;11.45;6.10;;;15.00;99.90;;;;;;5037879;28;20055;-70
2022/11/01 06:02:23;;;;;;;13.15;6.97;;;15.10;99.90;;;;;;5054673;28;20074;-70
2022/11/01 06:04:49;;;;;;;12.60;6.55;;;15.10;99.90;;;;;;5020983;28;20037;-70
2022/11/01 06:07:15;;;;;;;13.80;6.68;;;15.20;99.90;;;;;;5054235;28;20509;-70
2022/11/01 06:09:41;;;;;;;12.82;6.00;;;15.20;99.90;;;;;;5037818;28;20049;-70
2022/11/01 06:12:06;;;;;;;9.77;4.88;;;15.20;99.90;;;;;;5037692;28;20040;-70
2022/11/01 06:14:32;;;;;;;8.48;5.15;;;15.30;99.90;;;;;;5054327;28;20359;-70
2022/11/01 06:16:58;;;;;;;10.48;5.53;;;15.50;99.90;;;;;;5053758;28;20045;-70
2022/11/01 06:19:24;;;;;;;10.68;5.47;;;15.50;99.90;;;;;;5054333;28;20055;-70
2022/11/01 06:21:49;;;;;;;9.60;4.97;;;15.60;99.90;;;;;;5036302;28;20076;-71
2022/11/01 06:24:15;;;;;;;12.32;4.95;;;15.70;99.90;;;;;;5037349;28;20041;-69
2022/11/01 06:26:41;;;;;;;8.73;4.43;;;15.60;99.90;;;;;;5037375;28;20053;-69
2022/11/01 06:29:07;;;;;;;6.93;4.07;;;15.80;99.90;;;;;;5037139;28;20059;-69
2022/11/01 06:31:32;;;;;;;8.32;4.10;;;15.80;99.90;;;;;;5020757;28;20048;-69
2022/11/01 06:33:58;;;;;;;6.50;3.05;;;15.70;99.90;;;;;;5036995;28;20496;-70
2022/11/01 06:36:24;;;;;;;7.00;2.88;;;15.80;99.90;;;;;;5037009;28;20049;-70
2022/11/01 06:38:50;;;;;;;8.18;2.65;;;15.90;99.90;;;;;;5036687;28;20087;-70
2022/11/01 06:41:16;;;;;;;5.95;2.35;;;15.80;99.90;;;;;;5053234;28;20103;-70
2022/11/01 06:43:41;;;;;;;7.95;2.30;;;15.70;99.90;;;;;;5036831;28;20080;-70
2022/11/01 06:46:07;;;;;;;4.30;2.10;;;15.70;99.90;;;;;;5036927;28;20088;-70
2022/11/01 06:48:33;;;;;;;4.43;2.10;;;15.70;99.90;;;;;;5037108;28;20049;-70
2022/11/01 06:51:03;;;;;;;3.67;1.83;;;15.50;99.90;;;;;;5053155;28;20040;-70
2022/11/01 06:53:28;;;;;;;7.90;2.13;;;15.40;99.90;;;;;;5053580;28;20071;-70
2022/11/01 06:55:57;;;;;;;4.32;1.65;;;15.40;99.90;;;;;;5020294;28;20041;-70
2022/11/01 06:58:23;;;;;;;2.70;1.30;;;15.20;99.90;;;;;;5053261;28;20132;-70
2022/11/01 07:00:49;;;;;;;3.10;1.05;;;15.20;99.90;;;;;;5020513;28;20175;-69
2022/11/01 07:03:14;;;;;;;2.10;1.23;;;15.10;99.90;;;;;;5020162;28;20553;-70
2022/11/01 07:05:40;;;;;;;3.35;1.20;;;14.90;99.90;;;;;;5036728;28;20041;-70
2022/11/01 07:08:09;;;;;;;2.83;1.25;;;14.90;99.90;;;;;;5052783;28;20053;-71
2022/11/01 07:10:37;;;;;;;3.80;1.23;;;14.70;99.90;;;;;;5053447;28;20371;-70
2022/11/01 07:13:04;;;;;;;1.80;1.20;;;14.60;99.90;;;;;;5053056;28;20041;-70
2022/11/01 07:15:31;;;;;;;1.98;1.45;;;14.50;99.90;;;;;;5053190;28;20397;-70
2022/11/01 07:18:02;;;;;;;2.95;1.50;;;14.50;99.90;;;;;;5020008;28;20049;-70
2022/11/01 07:20:29;;;;;;;2.75;1.40;;;14.30;99.90;;;;;;5036683;28;20045;-70
2022/11/01 07:23:04;;;;;;;4.20;1.40;;;14.30;99.90;;;;;;5035828;28;20045;-70
2022/11/01 07:25:31;;;;;;;3.28;1.30;;;14.30;99.90;;;;;;5052445;28;20090;-70
2022/11/01 07:27:58;;;;;;;6.75;1.20;;;14.20;99.90;;;;;;5052913;28;20045;-71
2022/11/01 07:30:24;;;;;;;2.47;1.15;;;14.20;99.90;;;;;;5036309;28;20049;-70
2022/11/01 07:32:55;;;;;;;3.38;1.80;;;14.20;99.90;;;;;;5036068;28;20098;-70
2022/11/01 07:35:21;;;;;;;5.63;1.42;;;14.10;99.90;;;;;;5019610;28;20049;-70
2022/11/01 07:37:46;;;;;;;5.85;1.40;;;14.10;99.90;;;;;;5036262;28;20448;-70
2022/11/01 07:40:12;;;;;;;5.97;1.35;;;14.20;99.90;;;;;;5035756;28;20421;-70
2022/11/01 07:42:42;;;;;;;5.13;1.50;;;14.20;99.90;;;;;;5052658;28;20071;-70
2022/11/01 07:45:09;;;;;;;3.50;1.30;;;14.30;99.90;;;;;;5052099;28;20577;-70
2022/11/01 07:47:35;;;;;;;2.30;0.88;;;14.50;99.90;;;;;;5052528;28;20111;-70
2022/11/01 07:50:01;;;;;;;3.28;1.30;;;14.60;99.90;;;;;;5052559;28;20485;-70
2022/11/01 07:52:27;;;;;;;5.40;1.10;;;14.70;99.90;;;;;;5035818;28;20425;-70
2022/11/01 07:54:52;;;;;;;4.47;1.15;;;14.80;99.90;;;;;;5035905;28;20052;-70
2022/11/01 07:57:18;;;;;;;4.68;1.45;;;14.80;99.90;;;;;;5035661;28;20048;-70
2022/11/01 07:59:44;;;;;;;2.70;1.08;;;14.90;99.90;;;;;;5035815;28;20059;-70
2022/11/01 08:02:09;;;;;;;5.72;1.20;;;14.90;99.90;;;;;;5035614;28;20467;-70
2022/11/01 08:04:35;;;;;;;6.40;1.00;;;15.00;99.90;;;;;;5052024;28;20516;-70
2022/11/01 08:07:01;;;;;;;2.25;0.80;;;15.10;99.90;;;;;;5035458;28;20128;-70
2022/11/01 08:09:26;;;;;;;4.63;1.13;;;15.00;99.90;;;;;;5035393;28;20057;-70
2022/11/01 08:11:52;;;;;;;5.43;1.17;;;15.00;99.90;;;;;;5052219;28;20084;-70
2022/11/01 08:14:18;;;;;;;4.32;1.10;;;15.00;99.90;;;;;;5051981;28;20132;-70
2022/11/01 08:16:48;;;;;;;7.43;1.48;;;15.10;99.90;;;;;;5035527;28;20045;-70
2022/11/01 08:19:13;;;;;;;4.38;0.98;;;15.20;99.90;;;;;;5035435;28;20052;-70
2022/11/01 08:21:39;;;;;;;6.60;1.30;;;15.30;99.90;;;;;;5051958;28;20040;-70
2022/11/01 08:24:05;;;;;;;2.88;1.15;;;15.30;99.90;;;;;;5035335;28;20432;-70
2022/11/01 08:26:30;;;;;;;4.45;1.05;;;15.30;99.90;;;;;;5018837;28;20137;-70
2022/11/01 08:28:57;;;;;;;10.20;1.75;;;15.30;99.90;;;;;;5052002;28;20358;-70
2022/11/01 08:31:22;;;;;;;5.25;1.10;;;15.30;99.90;;;;;;5018419;28;20560;-70
2022/11/01 08:33:48;;;;;;;9.43;1.02;;;15.30;99.90;;;;;;5051636;28;20148;-70
2022/11/01 08:36:14;;;;;;;7.75;1.17;;;15.30;99.90;;;;;;5051666;28;20044;-69
2022/11/01 08:38:39;;;;;;;6.75;1.33;;;15.40;99.90;;;;;;5035335;28;20052;-70
2022/11/01 08:41:05;;;;;;;3.17;1.05;;;15.50;99.90;;;;;;5002589;28;20041;-70
2022/11/01 08:43:31;;;;;;;7.60;1.38;;;15.40;99.90;;;;;;5034863;28;20063;-70
2022/11/01 08:46:00;;;;;;;3.65;0.98;;;15.30;99.90;;;;;;5020594;28;20072;-70
2022/11/01 08:48:25;;;;;;;6.55;1.65;;;15.30;99.90;;;;;;5022744;28;20044;-70
2022/11/01 08:50:51;;;;;;;7.82;1.17;;;15.20;99.90;;;;;;5039268;28;20045;-70
2022/11/01 08:53:18;;;;;;;11.48;1.80;;;15.20;99.90;;;;;;5022711;28;20093;-70
2022/11/01 08:55:44;;;;;;;6.03;1.35;;;15.20;99.90;;;;;;5071323;28;20060;-70
2022/11/01 08:58:10;;;;;;;8.87;1.40;;;15.10;99.90;;;;;;4696709;28;10000217;-71
2022/11/01 09:00:36;;;;;;;7.43;1.33;;;15.10;99.90;;;;;;5053280;28;20287;-70
2022/11/01 09:03:02;;;;;;;13.13;1.80;;;15.00;99.90;;;;;;5037163;28;20045;-70
2022/11/01 09:05:30;;;;;;;4.85;1.33;;;15.00;99.90;;;;;;5034978;28;20485;-70
2022/11/01 09:07:59;;;;;;;10.40;1.70;;;15.10;99.90;;;;;;5018819;28;20052;-70
2022/11/01 09:10:27;;;;;;;12.27;1.63;;;15.10;99.90;;;;;;5051418;28;20051;-70
2022/11/01 09:12:53;;;;;;;3.92;1.20;;;15.00;99.90;;;;;;5035728;28;20056;-70
2022/11/01 09:15:18;;;;;;;9.82;1.60;;;15.20;99.90;;;;;;5035125;28;20037;-70
2022/11/01 09:17:44;;;;;;;16.40;1.63;;;15.30;99.90;;;;;;5052010;28;20086;-70
2022/11/01 09:20:10;;;;;;;6.65;1.67;;;15.40;99.90;;;;;;5052377;28;20047;-70
2022/11/01 09:22:36;;;;;;;8.07;1.30;;;15.50;99.90;;;;;;5051710;28;20396;-70
2022/11/01 09:25:04;;;;;;;12.15;1.30;;;15.50;99.90;;;;;;5051738;28;21314;-71
2022/11/01 09:27:30;;;;;;;13.25;1.75;;;15.60;99.90;;;;;;5052204;28;20052;-71
2022/11/01 09:29:55;;;;;;;10.77;1.90;;;15.70;99.90;;;;;;5035745;28;20412;-70
2022/11/01 09:32:21;;;;;;;8.35;1.88;;;15.70;99.90;;;;;;5035844;28;20045;-70
2022/11/01 09:34:48;;;;;;;14.18;2.20;;;15.70;99.90;;;;;;5038406;28;20646;-71
2022/11/01 09:37:14;;;;;;;12.27;1.88;;;15.70;99.90;;;;;;5062239;28;20115;-70
2022/11/01 09:39:40;;;;;;;12.60;2.25;;;15.70;99.90;;;;;;5052256;28;20044;-70
2022/11/01 09:42:23;;;;;;;10.75;1.50;;;15.80;99.90;;;;;;5052588;28;20124;-71
2022/11/01 09:44:52;;;;;;;11.45;1.60;;;15.80;99.90;;;;;;5035197;28;20548;-71
2022/11/01 09:47:24;;;;;;;11.95;2.35;;;15.90;99.90;;;;;;5035555;28;20459;-70
2022/11/01 09:49:59;;;;;;;16.90;2.20;;;16.00;99.90;;;;;;5052079;28;20497;-70
2022/11/01 09:52:25;;;;;;;11.93;1.73;;;16.00;99.90;;;;;;5052152;28;20045;-70
2022/11/01 09:54:51;;;;;;;17.88;2.30;;;16.00;99.90;;;;;;5035626;28;20040;-70
2022/11/01 09:57:28;;;;;;;8.90;1.75;;;16.00;99.90;;;;;;5060032;28;20067;-71
2022/11/01 10:00:04;;;;;;;11.13;1.85;;;16.10;99.90;;;;;;5061127;28;20045;-71
2022/11/01 10:02:51;;;;;;;12.90;1.67;;;16.00;99.90;;;;;;5052054;28;20045;-71
2022/11/01 10:05:30;;;;;;;9.15;1.80;;;15.90;99.90;;;;;;5051677;28;20080;-70
2022/11/01 10:08:08;;;;;;;8.77;1.60;;;15.90;99.90;;;;;;5060438;28;20059;-71
2022/11/01 10:10:39;;;;;;;11.07;1.70;;;16.00;99.90;;;;;;5054735;28;20063;-70
2022/11/01 10:13:36;;;;;;;12.07;1.67;;;16.10;99.90;;;;;;5072211;28;20041;-71
2022/11/01 10:16:14;;;;;;;8.73;1.80;;;16.20;99.90;;;;;;5071981;28;20054;-70
2022/11/01 10:18:50;;;;;;;16.05;2.08;;;16.20;99.90;;;;;;5070104;28;20076;-70
2022/11/01 10:21:18;;;;;;;17.60;2.45;;;16.20;99.90;;;;;;5068208;28;20052;-70
2022/11/01 10:23:51;;;;;;;7.95;2.20;;;16.30;99.90;;;;;;5062548;28;20605;-70
2022/11/01 10:26:22;;;;;;;12.40;2.20;;;16.30;99.90;;;;;;5033891;28;20056;-70
2022/11/01 10:29:30;;;;;;;11.45;2.20;;;16.40;99.90;;;;;;5034619;28;20048;-70
2022/11/01 10:31:57;;;;;;;13.75;1.70;;;16.30;99.90;;;;;;5034820;28;20056;-70
2022/11/01 10:34:31;;;;;;;10.77;2.30;;;16.50;99.90;;;;;;5033642;28;20409;-70
2022/11/01 10:37:29;;;;;;;13.50;2.42;;;16.30;99.90;;;;;;5051373;28;20063;-70
2022/11/01 10:40:00;;;;;;;12.77;2.10;;;16.40;99.90;;;;;;5042296;28;20052;-70
2022/11/01 10:42:28;;;;;;;12.35;1.92;;;16.30;99.90;;;;;;5034691;28;20127;-70
2022/11/01 10:45:25;;;;;;;15.52;2.05;;;16.40;99.90;;;;;;5033951;28;20045;-70
2022/11/01 10:47:56;;;;;;;9.07;1.42;;;16.50;99.90;;;;;;5042249;28;20041;-70
2022/11/01 10:50:26;;;;;;;11.07;2.13;;;16.80;99.90;;;;;;5034753;28;20082;-70
2022/11/01 10:52:55;;;;;;;10.70;1.95;;;16.90;99.90;;;;;;5034328;28;20059;-71
2022/11/01 10:55:45;;;;;;;9.98;2.38;;;16.90;99.90;;;;;;5034574;28;20515;-71
2022/11/01 10:58:26;;;;;;;13.88;2.92;;;16.90;99.90;;;;;;5066928;28;20086;-70
2022/11/01 11:00:53;;;;;;;8.25;1.38;;;16.90;99.90;;;;;;5034419;28;20049;-71
2022/11/01 11:03:23;;;;;;;11.60;1.95;;;16.70;99.90;;;;;;5050833;28;20049;-71
2022/11/01 11:05:51;;;;;;;12.88;2.35;;;16.50;99.90;;;;;;5050819;28;20045;-70
2022/11/01 11:08:20;;;;;;;8.52;1.65;;;16.30;99.90;;;;;;5049956;28;20085;-71
2022/11/01 11:10:47;;;;;;;12.25;1.98;;;16.20;99.90;;;;;;5061851;28;20040;-70
2022/11/01 11:13:15;;;;;;;14.80;2.63;;;16.30;99.90;;;;;;5050198;28;20045;-71
2022/11/01 11:15:51;;;;;;;12.13;2.08;;;16.20;99.90;;;;;;5033214;28;20448;-70
2022/11/01 11:18:37;;;;;;;12.95;2.20;;;16.20;99.90;;;;;;5051499;28;20052;-71
2022/11/01 11:21:11;;;;;;;10.52;1.85;;;16.00;99.90;;;;;;5051835;28;20064;-70
2022/11/01 11:23:46;;;;;;;10.40;1.40;;;15.90;99.90;;;;;;5034037;28;20551;-71
2022/11/01 11:26:16;;;;;;;11.95;1.90;;;15.90;99.90;;;;;;5052417;28;20489;-70
2022/11/01 11:28:50;;;;;;;12.85;1.98;;;15.80;99.90;;;;;;5049890;28;20041;-70
2022/11/01 11:31:32;;;;;;;7.97;1.77;;;15.80;99.90;;;;;;5033142;28;20413;-71
2022/11/01 11:34:16;;;;;;;8.00;1.98;;;15.80;99.90;;;;;;5032469;28;20041;-70
2022/11/01 11:36:47;;;;;;;13.38;2.08;;;15.80;99.90;;;;;;5049987;28;20052;-70
2022/11/01 11:39:29;;;;;;;7.70;1.98;;;15.80;99.90;;;;;;5049831;28;20606;-70
2022/11/01 11:42:19;;;;;;;9.23;2.10;;;16.20;99.90;;;;;;5049660;28;20044;-70
2022/11/01 11:44:47;;;;;;;8.93;1.85;;;16.70;99.90;;;;;;5032651;28;20075;-70
2022/11/01 11:47:37;;;;;;;10.30;2.20;;;17.00;99.90;;;;;;5050146;28;20048;-71
2022/11/01 11:50:24;;;;;;;12.48;1.95;;;17.20;99.90;;;;;;5044248;28;20409;-70
2022/11/01 11:52:57;;;;;;;9.52;1.70;;;17.40;99.90;;;;;;5050704;28;20086;-72
2022/11/01 11:55:47;;;;;;;9.10;1.88;;;17.70;99.90;;;;;;5033606;28;20048;-71
2022/11/01 11:58:32;;;;;;;12.45;2.03;;;17.90;99.90;;;;;;5050853;28;20055;-71
2022/11/01 12:01:05;;;;;;;8.10;1.77;;;18.00;99.90;;;;;;5033240;28;20084;-70
2022/11/01 12:03:54;;;;;;;14.25;1.95;;;17.60;99.90;;;;;;5049735;28;20055;-71
2022/11/01 12:06:26;;;;;;;9.18;1.98;;;17.60;99.90;;;;;;5033168;28;20485;-71
2022/11/01 12:08:58;;;;;;;8.90;1.95;;;17.60;99.90;;;;;;5064790;28;20115;-70
2022/11/01 12:11:35;;;;;;;6.78;1.85;;;17.70;99.90;;;;;;5053185;28;20084;-71
2022/11/01 12:14:04;;;;;;;12.90;1.70;;;17.80;99.90;;;;;;5052831;28;20329;-71
2022/11/01 12:16:39;;;;;;;11.13;1.67;;;18.30;99.90;;;;;;5069763;28;20044;-71
2022/11/01 12:19:05;;;;;;;11.35;1.80;;;18.30;99.90;;;;;;5052730;28;20056;-71
2022/11/01 12:21:39;;;;;;;9.18;1.98;;;18.20;99.90;;;;;;5069048;28;20451;-71
2022/11/01 12:24:17;;;;;;;10.02;2.08;;;18.40;99.90;;;;;;5069360;28;20441;-71
2022/11/01 12:26:44;;;;;;;8.70;1.70;;;18.00;99.90;;;;;;5069247;28;20040;-70
2022/11/01 12:29:25;;;;;;;14.57;1.77;;;17.90;99.90;;;;;;5052513;28;20151;-70
2022/11/01 12:31:54;;;;;;;12.65;1.85;;;18.00;99.90;;;;;;5068990;28;20048;-71
2022/11/01 12:34:29;;;;;;;10.48;1.48;;;18.00;99.90;;;;;;5069018;28;20105;-71
2022/11/01 12:37:44;;;;;;;7.82;1.85;;;17.80;99.90;;;;;;5052667;28;20131;-71
2022/11/01 12:40:19;;;;;;;9.27;1.60;;;17.70;99.90;;;;;;5009475;28;20048;-71
2022/11/01 12:43:02;;;;;;;9.80;1.77;;;17.50;99.90;;;;;;5040521;28;20412;-70
2022/11/01 12:45:40;;;;;;;9.07;1.70;;;17.30;99.90;;;;;;5050422;28;20099;-70
2022/11/01 12:48:09;;;;;;;8.68;1.52;;;17.50;99.90;;;;;;5048553;28;20041;-70
2022/11/01 12:50:44;;;;;;;8.38;1.25;;;18.20;99.90;;;;;;5032472;28;20055;-70
2022/11/01 12:53:36;;;;;;;7.07;1.75;;;18.60;99.90;;;;;;5049032;28;20045;-71
2022/11/01 12:56:02;;;;;;;8.27;1.60;;;18.40;99.90;;;;;;5032298;28;20382;-70
2022/11/01 12:58:28;;;;;;;9.93;1.23;;;18.40;99.90;;;;;;5028643;28;20049;-72